createdAt,value
2022-09-28T00:00:11.756Z,8.1
2022-09-28T00:03:12.335Z,8.3
2022-09-28T00:06:11.676Z,8.3
2022-09-28T00:09:11.747Z,8.3
2022-09-28T00:12:11.716Z,8.3
2022-09-28T00:15:11.741Z,8.3
2022-09-28T00:18:11.710Z,8.3
2022-09-28T00:21:11.655Z,8.3
2022-09-28T00:24:11.743Z,8.1
2022-09-28T00:27:11.758Z,8.1
2022-09-28T00:30:11.743Z,8
2022-09-28T00:33:11.687Z,8
2022-09-28T00:36:11.745Z,7.9
2022-09-28T00:39:11.753Z,7.7
2022-09-28T00:42:11.708Z,7.6
2022-09-28T00:45:11.720Z,7.5
2022-09-28T00:48:11.691Z,7.4
2022-09-28T00:51:11.674Z,7.2
2022-09-28T00:54:11.699Z,7.1
2022-09-28T00:57:11.619Z,7
2022-09-28T01:00:11.809Z,6.9
2022-09-28T01:03:11.765Z,6.6
2022-09-28T01:06:11.715Z,6.5
2022-09-28T01:09:11.862Z,6.4
2022-09-28T01:12:11.676Z,6.2
2022-09-28T01:15:11.742Z,6.1
2022-09-28T01:18:11.674Z,6.1
2022-09-28T01:21:11.688Z,6
2022-09-28T01:24:11.673Z,5.9
2022-09-28T01:27:11.721Z,5.7
2022-09-28T01:30:11.710Z,5.5
2022-09-28T01:33:11.758Z,5.5
2022-09-28T01:36:11.673Z,5.5
2022-09-28T01:39:11.841Z,5.4
2022-09-28T01:42:11.684Z,5.4
2022-09-28T01:45:11.701Z,5.4
2022-09-28T01:48:11.703Z,5.5
2022-09-28T01:51:11.707Z,5.6
2022-09-28T01:54:11.695Z,5.7
2022-09-28T01:57:11.688Z,5.9
2022-09-28T02:00:11.774Z,6
2022-09-28T02:03:11.724Z,6
2022-09-28T02:06:11.722Z,6
2022-09-28T02:09:11.701Z,6
2022-09-28T02:12:11.682Z,5.9
2022-09-28T02:15:11.726Z,5.9
2022-09-28T02:18:11.933Z,5.9
2022-09-28T02:21:11.826Z,6
2022-09-28T02:24:11.820Z,6
2022-09-28T02:27:11.726Z,6
2022-09-28T02:30:11.779Z,6.1
2022-09-28T02:33:11.687Z,6
2022-09-28T02:36:11.726Z,6.1
2022-09-28T02:39:11.760Z,6.1
2022-09-28T02:42:11.727Z,6.1
2022-09-28T02:45:11.667Z,6.1
2022-09-28T02:48:11.754Z,6.1
2022-09-28T02:51:11.695Z,6.2
2022-09-28T02:54:14.406Z,6.2
2022-09-28T02:57:11.652Z,6.4
2022-09-28T03:00:11.752Z,6.5
2022-09-28T03:03:11.687Z,6.5
2022-09-28T03:06:11.704Z,6.5
2022-09-28T03:09:11.686Z,6.6
2022-09-28T03:12:11.777Z,6.6
2022-09-28T03:15:11.784Z,6.6
2022-09-28T03:18:11.677Z,6.6
2022-09-28T03:21:11.723Z,6.6
2022-09-28T03:24:11.754Z,6.6
2022-09-28T03:27:11.660Z,6.6
2022-09-28T03:30:11.764Z,6.7
2022-09-28T03:33:11.796Z,6.7
2022-09-28T03:36:11.704Z,6.7
2022-09-28T03:39:11.676Z,6.9
2022-09-28T03:42:11.762Z,6.9
2022-09-28T03:45:11.686Z,6.9
2022-09-28T03:48:11.763Z,7
2022-09-28T03:51:11.724Z,7
2022-09-28T03:54:11.698Z,7
2022-09-28T03:57:11.697Z,7.1
2022-09-28T04:00:11.756Z,7.1
2022-09-28T04:03:11.730Z,7.2
2022-09-28T04:06:11.708Z,7.2
2022-09-28T04:09:11.690Z,7.2
2022-09-28T04:12:15.725Z,7.2
2022-09-28T04:15:11.722Z,7.2
2022-09-28T04:18:11.757Z,7.4
2022-09-28T04:21:11.773Z,7.4
2022-09-28T04:24:11.740Z,7.4
2022-09-28T04:27:11.703Z,7.4
2022-09-28T04:30:11.778Z,7.4
2022-09-28T04:33:11.709Z,7.5
2022-09-28T04:36:11.738Z,7.5
2022-09-28T04:39:11.769Z,7.4
2022-09-28T04:42:11.686Z,7.5
2022-09-28T04:45:11.726Z,7.5
2022-09-28T04:48:11.716Z,7.5
2022-09-28T04:51:11.740Z,7.5
2022-09-28T04:54:11.725Z,7.5
2022-09-28T04:57:11.756Z,7.6
2022-09-28T05:00:11.865Z,7.5
2022-09-28T05:03:11.752Z,7.6
2022-09-28T05:06:11.693Z,7.6
2022-09-28T05:09:11.707Z,7.6
2022-09-28T05:12:11.660Z,7.6
2022-09-28T05:15:11.814Z,7.6
2022-09-28T05:18:11.730Z,7.6
2022-09-28T05:21:11.743Z,7.6
2022-09-28T05:24:12.019Z,7.6
2022-09-28T05:27:11.732Z,7.6
2022-09-28T05:30:11.908Z,7.7
2022-09-28T05:33:11.746Z,7.7
2022-09-28T05:36:13.053Z,7.7
2022-09-28T05:39:11.759Z,7.7
2022-09-28T05:42:11.857Z,7.7
2022-09-28T05:45:11.762Z,7.9
2022-09-28T05:48:11.825Z,7.9
2022-09-28T05:51:11.691Z,7.9
2022-09-28T05:54:17.551Z,7.9
2022-09-28T05:57:11.784Z,7.9
2022-09-28T06:00:11.814Z,7.9
2022-09-28T06:03:17.767Z,7.9
2022-09-28T06:06:11.743Z,7.9
2022-09-28T06:09:11.715Z,7.9
2022-09-28T06:12:11.773Z,8
2022-09-28T06:15:11.758Z,8
2022-09-28T06:18:11.713Z,8
2022-09-28T06:21:11.769Z,8.1
2022-09-28T06:24:11.757Z,8.3
2022-09-28T06:27:11.740Z,8.4
2022-09-28T06:30:11.890Z,8.5
2022-09-28T06:33:11.710Z,8.8
2022-09-28T06:36:11.739Z,8.9
2022-09-28T06:39:11.814Z,9.1
2022-09-28T06:42:11.727Z,9.3
2022-09-28T06:45:11.769Z,9.4
2022-09-28T06:48:11.717Z,9.5
2022-09-28T06:51:11.759Z,9.6
2022-09-28T06:54:11.760Z,9.6
2022-09-28T06:57:11.740Z,9.6
2022-09-28T07:00:11.926Z,9.8
2022-09-28T07:03:11.738Z,9.8
2022-09-28T07:06:11.842Z,9.8
2022-09-28T07:09:57.511Z,9.8
2022-09-28T07:12:11.808Z,9.9
2022-09-28T07:15:11.810Z,10
2022-09-28T07:18:15.285Z,10
2022-09-28T07:21:26.997Z,10
2022-09-28T07:24:11.718Z,10
2022-09-28T07:27:11.716Z,10
2022-09-28T07:30:11.889Z,10.1
2022-09-28T07:33:11.703Z,10.3
2022-09-28T07:36:11.837Z,10.5
2022-09-28T07:39:11.823Z,10.8
2022-09-28T07:42:14.230Z,10.9
2022-09-28T07:45:11.737Z,11.1
2022-09-28T07:51:11.776Z,11.5
2022-09-28T07:54:11.758Z,11.8
2022-09-28T07:57:11.753Z,11.9
2022-09-28T08:00:11.813Z,12
2022-09-28T08:03:11.841Z,12
2022-09-28T08:06:11.761Z,11.9
2022-09-28T08:09:11.848Z,11.8
2022-09-28T08:12:11.800Z,11.6
2022-09-28T08:15:11.823Z,11.5
2022-09-28T08:18:14.144Z,11.4
2022-09-28T08:21:11.731Z,11.3
2022-09-28T08:24:11.794Z,11.3
2022-09-28T08:27:11.853Z,11.3
2022-09-28T08:30:11.940Z,11.1
2022-09-28T08:33:11.748Z,11.1
2022-09-28T08:36:11.693Z,11.3
2022-09-28T08:39:11.849Z,11.4
2022-09-28T08:42:11.784Z,11.6
2022-09-28T08:45:11.777Z,11.9
2022-09-28T08:48:11.775Z,11.9
2022-09-28T08:51:11.785Z,12.1
2022-09-28T08:54:16.810Z,12.2
2022-09-28T08:57:11.779Z,12.5
2022-09-28T09:00:18.145Z,12.8
2022-09-28T09:03:11.857Z,13
2022-09-28T09:06:14.271Z,13.1
2022-09-28T09:09:11.792Z,13.4
2022-09-28T09:12:11.776Z,13.5
2022-09-28T09:15:11.815Z,13.6
2022-09-28T09:18:12.190Z,13.5
2022-09-28T09:21:11.787Z,13.4
2022-09-28T09:24:11.684Z,13.4
2022-09-28T09:27:11.762Z,13.3
2022-09-28T09:30:11.733Z,13.3
2022-09-28T09:33:11.841Z,13.3
2022-09-28T09:36:11.697Z,13.1
2022-09-28T09:39:11.738Z,13.1
2022-09-28T09:42:12.070Z,12.9
2022-09-28T09:45:11.862Z,12.4
2022-09-28T09:48:11.880Z,12
2022-09-28T09:51:11.857Z,12
2022-09-28T09:54:11.807Z,11.9
2022-09-28T09:57:11.738Z,12
2022-09-28T10:00:11.994Z,11.9
2022-09-28T10:03:11.931Z,11.9
2022-09-28T10:06:11.773Z,11.9
2022-09-28T10:09:11.930Z,12.1
2022-09-28T10:12:11.761Z,12.2
2022-09-28T10:15:11.829Z,12.2
2022-09-28T10:18:11.691Z,12.5
2022-09-28T10:21:11.853Z,13.5
2022-09-28T10:24:11.898Z,14.9
2022-09-28T10:27:11.806Z,16.4
2022-09-28T10:30:11.843Z,17.6
2022-09-28T10:33:11.846Z,18
2022-09-28T10:36:11.757Z,18
2022-09-28T10:39:11.793Z,17.6
2022-09-28T10:42:11.791Z,17.4
2022-09-28T10:45:11.787Z,16.9
2022-09-28T10:48:11.785Z,16.1
2022-09-28T10:51:11.880Z,15.8
2022-09-28T10:54:11.753Z,16
2022-09-28T10:57:17.698Z,16.3
2022-09-28T11:00:11.758Z,16.4
2022-09-28T11:03:11.942Z,16.4
2022-09-28T11:06:11.788Z,16.3
2022-09-28T11:09:11.882Z,15.9
2022-09-28T11:12:11.760Z,15.4
2022-09-28T11:15:11.768Z,15.1
2022-09-28T11:18:11.747Z,14.7
2022-09-28T11:21:15.522Z,14.1
2022-09-28T11:24:14.424Z,13.8
2022-09-28T11:27:11.933Z,13.4
2022-09-28T11:30:11.917Z,13.3
2022-09-28T11:33:11.776Z,13.1
2022-09-28T11:36:11.779Z,13.1
2022-09-28T11:39:11.822Z,13.3
2022-09-28T11:42:16.659Z,13.5
2022-09-28T11:48:11.739Z,13.8
2022-09-28T11:51:11.777Z,14
2022-09-28T11:54:11.755Z,14
2022-09-28T11:57:11.715Z,14.4
2022-09-28T12:00:11.885Z,14.9
2022-09-28T12:03:13.113Z,15.1
2022-09-28T12:06:12.228Z,15.8
2022-09-28T12:09:11.823Z,16.1
2022-09-28T12:12:11.881Z,16.8
2022-09-28T12:15:11.828Z,17.6
2022-09-28T12:18:12.329Z,18.3
2022-09-28T12:21:16.448Z,18.8
2022-09-28T12:24:11.777Z,18.6
2022-09-28T12:27:11.737Z,18.5
2022-09-28T12:30:11.895Z,18.6
2022-09-28T12:33:11.831Z,18.5
2022-09-28T12:36:11.690Z,18.1
2022-09-28T12:42:11.676Z,19.6
2022-09-28T12:45:11.791Z,19.6
2022-09-28T12:48:11.752Z,19.1
2022-09-28T12:51:12.402Z,19.3
2022-09-28T12:54:11.918Z,19
2022-09-28T12:57:11.805Z,18.5
2022-09-28T13:00:12.209Z,18.8
2022-09-28T13:03:11.941Z,19.1
2022-09-28T13:06:11.752Z,19
2022-09-28T13:09:11.901Z,18.3
2022-09-28T13:12:11.779Z,17.8
2022-09-28T13:15:11.858Z,17.8
2022-09-28T13:18:11.795Z,17.6
2022-09-28T13:21:11.778Z,17.2
2022-09-28T13:24:41.417Z,16.9
2022-09-28T13:27:11.766Z,16.6
2022-09-28T13:30:12.461Z,16.6
2022-09-28T13:33:11.769Z,17.2
2022-09-28T13:36:11.819Z,21.2
2022-09-28T13:39:11.816Z,26.4
2022-09-28T13:42:11.768Z,25.4
2022-09-28T13:45:11.823Z,26.1
2022-09-28T13:48:11.780Z,24.3
2022-09-28T13:51:11.875Z,22.4
2022-09-28T13:54:11.787Z,21.1
2022-09-28T13:57:11.822Z,20.4
2022-09-28T14:00:11.923Z,20
2022-09-28T14:03:12.281Z,19.4
2022-09-28T14:06:12.190Z,19
2022-09-28T14:09:11.814Z,21.9
2022-09-28T14:12:11.880Z,23.5
2022-09-28T14:15:11.840Z,22.2
2022-09-28T14:18:11.871Z,21.9
2022-09-28T14:21:11.771Z,22
2022-09-28T14:24:11.790Z,24.1
2022-09-28T14:27:11.734Z,23.7
2022-09-28T14:30:11.923Z,25
2022-09-28T14:33:11.713Z,24.7
2022-09-28T14:36:11.737Z,27.2
2022-09-28T14:39:11.809Z,29.3
2022-09-28T14:42:11.750Z,28
2022-09-28T14:45:18.220Z,25
2022-09-28T14:48:11.920Z,23.6
2022-09-28T14:51:11.793Z,23.6
2022-09-28T14:54:11.839Z,23.1
2022-09-28T14:57:11.815Z,22.9
2022-09-28T15:00:11.952Z,27.4
2022-09-28T15:03:16.879Z,25.9
2022-09-28T15:06:11.789Z,24.9
2022-09-28T15:09:11.797Z,23.4
2022-09-28T15:12:11.681Z,22.8
2022-09-28T15:15:11.820Z,22
2022-09-28T15:18:11.867Z,21.4
2022-09-28T15:21:11.808Z,21.5
2022-09-28T15:24:11.786Z,24.1
2022-09-28T15:27:11.791Z,25.8
2022-09-28T15:30:11.920Z,25.8
2022-09-28T15:33:11.750Z,24.5
2022-09-28T15:36:11.743Z,22
2022-09-28T15:39:11.899Z,21.8
2022-09-28T15:42:11.714Z,19.8
2022-09-28T15:45:11.820Z,17.9
2022-09-28T15:48:11.746Z,16.9
2022-09-28T15:51:11.737Z,16
2022-09-28T15:54:11.862Z,15.3
2022-09-28T15:57:11.768Z,14.6
2022-09-28T16:00:11.804Z,14.1
2022-09-28T16:03:12.500Z,13.9
2022-09-28T16:06:11.738Z,13.6
2022-09-28T16:09:11.852Z,13.5
2022-09-28T16:12:11.788Z,13.4
2022-09-28T16:15:11.781Z,13.1
2022-09-28T16:18:11.845Z,13.6
2022-09-28T16:21:11.803Z,13.5
2022-09-28T16:24:11.807Z,12.9
2022-09-28T16:27:11.732Z,12.4
2022-09-28T16:30:11.963Z,11.9
2022-09-28T16:33:11.687Z,11.6
2022-09-28T16:36:11.722Z,11.4
2022-09-28T16:39:11.866Z,11.3
2022-09-28T16:42:11.738Z,11
2022-09-28T16:45:11.813Z,10.9
2022-09-28T16:48:11.652Z,10.8
2022-09-28T16:51:11.761Z,10.6
2022-09-28T16:54:11.787Z,10.5
2022-09-28T16:57:11.862Z,10.5
2022-09-28T17:00:11.836Z,10.4
2022-09-28T17:03:12.414Z,10.4
2022-09-28T17:06:11.690Z,10.3
2022-09-28T17:09:11.792Z,10.1
2022-09-28T17:12:11.742Z,10.1
2022-09-28T17:15:11.708Z,10.1
2022-09-28T17:18:11.715Z,10
2022-09-28T17:21:11.742Z,10
2022-09-28T17:24:11.782Z,10
2022-09-28T17:27:11.751Z,10
2022-09-28T17:30:11.843Z,10
2022-09-28T17:33:11.655Z,10
2022-09-28T17:36:12.111Z,9.9
2022-09-28T17:39:11.751Z,9.9
2022-09-28T17:42:11.630Z,9.9
2022-09-28T17:45:11.746Z,9.9
2022-09-28T17:48:11.683Z,9.9
2022-09-28T17:51:11.687Z,9.9
2022-09-28T17:54:11.704Z,9.9
2022-09-28T17:57:11.802Z,9.8
2022-09-28T18:00:11.750Z,9.8
2022-09-28T18:03:12.178Z,9.8
2022-09-28T18:06:11.734Z,9.8
2022-09-28T18:09:11.696Z,9.8
2022-09-28T18:12:11.717Z,9.8
2022-09-28T18:15:11.707Z,9.8
2022-09-28T18:18:11.734Z,9.8
2022-09-28T18:21:11.772Z,9.6
2022-09-28T18:24:11.747Z,9.6
2022-09-28T18:27:11.749Z,9.6
2022-09-28T18:30:11.729Z,9.6
2022-09-28T18:33:11.670Z,9.6
2022-09-28T18:36:11.798Z,9.6
2022-09-28T18:39:12.016Z,9.6
2022-09-28T18:42:11.696Z,9.6
2022-09-28T18:45:11.746Z,9.6
2022-09-28T18:48:11.728Z,9.6
2022-09-28T18:51:11.750Z,9.6
2022-09-28T18:54:11.756Z,9.6
2022-09-28T18:57:11.781Z,9.6
2022-09-28T19:00:11.731Z,9.5
2022-09-28T19:03:12.946Z,9.5
2022-09-28T19:06:12.164Z,9.5
2022-09-28T19:09:11.949Z,9.5
2022-09-28T19:12:11.684Z,9.5
2022-09-28T19:15:11.677Z,9.5
2022-09-28T19:18:11.786Z,9.5
2022-09-28T19:21:11.761Z,9.5
2022-09-28T19:24:11.725Z,9.5
2022-09-28T19:27:11.713Z,9.5
2022-09-28T19:30:11.696Z,9.5
2022-09-28T19:33:11.697Z,9.5
2022-09-28T19:36:11.736Z,9.4
2022-09-28T19:39:11.699Z,9.4
2022-09-28T19:42:11.797Z,9.4
2022-09-28T19:45:11.720Z,9.4
2022-09-28T19:48:11.748Z,9.4
2022-09-28T19:51:11.675Z,9.4
2022-09-28T19:54:11.736Z,9.4
2022-09-28T19:57:12.253Z,9.4
2022-09-28T20:00:15.058Z,9.4
2022-09-28T20:03:12.143Z,9.4
2022-09-28T20:06:17.403Z,9.4
2022-09-28T20:09:11.879Z,9.4
2022-09-28T20:12:11.700Z,9.4
2022-09-28T20:15:11.844Z,9.4
2022-09-28T20:18:11.891Z,9.4
2022-09-28T20:21:13.329Z,9.3
2022-09-28T20:24:11.694Z,9.4
2022-09-28T20:27:11.756Z,9.3
2022-09-28T20:30:11.656Z,9.3
2022-09-28T20:33:18.980Z,9.3
2022-09-28T20:36:11.679Z,9.4
2022-09-28T20:39:11.823Z,9.3
2022-09-28T20:42:11.702Z,9.4
2022-09-28T20:45:11.905Z,9.3
2022-09-28T20:48:11.669Z,9.3
2022-09-28T20:51:11.728Z,9.3
2022-09-28T20:54:11.791Z,9.3
2022-09-28T20:57:11.752Z,9.3
2022-09-28T21:00:11.796Z,9.3
2022-09-28T21:03:12.396Z,9.3
2022-09-28T21:06:18.033Z,9.3
2022-09-28T21:09:11.720Z,9.3
2022-09-28T21:12:11.710Z,9.3
2022-09-28T21:15:17.249Z,9.3
2022-09-28T21:18:11.712Z,9.3
2022-09-28T21:21:11.660Z,9.3
2022-09-28T21:24:11.799Z,9.3
2022-09-28T21:27:11.696Z,9.3
2022-09-28T21:30:11.746Z,9.3
2022-09-28T21:33:11.712Z,9.3
2022-09-28T21:36:11.720Z,9.1
2022-09-28T21:39:17.341Z,9.1
2022-09-28T21:42:11.725Z,9.1
2022-09-28T21:45:11.667Z,9.1
2022-09-28T21:48:11.657Z,9
2022-09-28T21:51:11.709Z,9
2022-09-28T21:54:11.686Z,9
2022-09-28T21:57:11.647Z,8.9
2022-09-28T22:00:11.897Z,8.8
2022-09-28T22:03:12.199Z,8.6
2022-09-28T22:06:11.732Z,8.4
2022-09-28T22:09:11.754Z,8.3
2022-09-28T22:12:11.669Z,8.1
2022-09-28T22:15:11.696Z,8.1
2022-09-28T22:18:11.693Z,8
2022-09-28T22:21:11.688Z,8
2022-09-28T22:24:11.850Z,8
2022-09-28T22:27:11.732Z,8
2022-09-28T22:30:11.734Z,8
2022-09-28T22:33:11.808Z,8
2022-09-28T22:36:11.691Z,8
2022-09-28T22:39:11.744Z,8
2022-09-28T22:42:11.760Z,8
2022-09-28T22:45:11.808Z,8
2022-09-28T22:48:11.695Z,7.9
2022-09-28T22:51:11.721Z,7.9
2022-09-28T22:54:11.772Z,7.9
2022-09-28T22:57:11.743Z,7.7
2022-09-28T23:00:11.751Z,7.6
2022-09-28T23:03:12.438Z,7.5
2022-09-28T23:06:15.647Z,7.5
2022-09-28T23:09:11.786Z,7.5
2022-09-28T23:12:11.699Z,7.5
2022-09-28T23:15:11.758Z,7.5
2022-09-28T23:18:11.728Z,7.5
2022-09-28T23:21:11.686Z,7.5
2022-09-28T23:24:11.785Z,7.5
2022-09-28T23:27:11.741Z,7.5
2022-09-28T23:30:11.763Z,7.5
2022-09-28T23:33:11.689Z,7.5
2022-09-28T23:36:11.736Z,7.5
2022-09-28T23:39:11.805Z,7.5
2022-09-28T23:42:11.659Z,7.5
2022-09-28T23:45:11.686Z,7.5
2022-09-28T23:48:11.789Z,7.5
2022-09-28T23:51:11.691Z,7.4
2022-09-28T23:54:11.748Z,7.4
2022-09-28T23:57:11.686Z,7.2
